Flight Track Log - Related Links

Times and Time Zones

All times are in EDT time to prevent confusion due to time zone crossing. See the N761BT flight status page for this flight to view local times or setup timezone preferences in your user account.

Time Position Orientation Groundspeed Altitude Reporting Facility
EDT Latitude Longitude Course Direction KTS MPH feet Rate Location/Type
Thu 06:42:30 PM 30.3278 -81.5064 132° Southeast 93 107 500  Level Jacksonville Center
Thu 06:43:19 PM 30.3131 -81.4872 132° Southeast 96 110 1,000 545 Climbing Jacksonville Center
Thu 06:44:20 PM 30.2897 -81.4661 142° Southeast 109 125 1,500 541 Climbing Jacksonville Center
Thu 06:45:21 PM 30.2650 -81.4808 207° Southwest 110 127 2,100 541 Climbing Jacksonville Center
Thu 06:46:22 PM 30.2694 -81.5144 279° West 115 132 2,600 446 Climbing Jacksonville Center
Thu 06:47:22 PM 30.2844 -81.5528 294° West 119 137 3,000 198 Climbing Jacksonville Center
Thu 06:48:23 PM 30.3017 -81.5933 296° West 133 153 3,000  Level Jacksonville Center
Thu 06:49:30 PM 30.3208 -81.6342 299° West 133 153 3,000 47 Level Jacksonville Center
Thu 06:50:31 PM 30.3339 -81.6722 292° West 134 154 3,100  Climbing Jacksonville Center
Thu 06:51:26 PM 30.3467 -81.7083 292° West 137 158 3,000 -55 Descending Jacksonville Center
Thu 06:52:21 PM 30.3594 -81.7467 291° West 138 159 3,000 -52 Level Jacksonville Center
Thu 06:53:21 PM 30.3931 -81.7608 340° North 152 175 2,900 -50 Descending Jacksonville Center
Thu 06:54:22 PM 30.4303 -81.7314 34° Northeast 157 181 2,900 49 Level Jacksonville Center
Thu 06:55:23 PM 30.4633 -81.6997 40° Northeast 146 168 3,000 47 Climbing Jacksonville Center
Thu 06:56:30 PM 30.4486 -81.6614 114° Southeast 134 154 3,000 -281 Level Jacksonville Center
Thu 06:57:31 PM 30.4231 -81.6256 130° Southeast 147 169 2,400 -744 Descending Jacksonville Center
Thu 06:58:31 PM 30.3997 -81.5872 125° Southeast 137 158 1,500 -756 Descending Jacksonville Center
Thu 06:59:38 PM 30.3744 -81.5586 136° Southeast 109 125 800 -516 Descending Jacksonville Center
Thu 07:00:39 PM 30.3553 -81.5372 136° Southeast 92 106 400 49 Descending Jacksonville Center
Thu 07:01:40 PM 30.3383 -81.5158 133° Southeast 93 107 900 569 Climbing Jacksonville Center
Thu 07:02:35 PM 30.3319 -81.4847 103° East 115 132 1,500 672 Climbing Jacksonville Center
Thu 07:03:36 PM 30.3567 -81.4697 28° Northeast 127 146 2,200 609 Climbing Jacksonville Center
Thu 07:04:43 PM 30.3614 -81.5131 277° West 114 131 2,800 375 Climbing Jacksonville Center
Thu 07:05:44 PM 30.3575 -81.5492 263° West 116 133 3,000 157 Climbing Jacksonville Center
Thu 07:06:38 PM 30.3600 -81.5878 274° West 130 150 3,100 52 Climbing Jacksonville Center
Thu 07:07:39 PM 30.3667 -81.6286 281° West 131 151 3,100 -47 Level Jacksonville Center
Thu 07:08:46 PM 30.3692 -81.6767 273° West 135 155 3,000 -47 Descending Jacksonville Center
Thu 07:09:47 PM 30.3675 -81.7225 268° West 141 162 3,000  Level Jacksonville Center
Thu 07:10:48 PM 30.3867 -81.7536 306° West 138 159 3,000  Level Jacksonville Center
Thu 07:11:49 PM 30.4200 -81.7411 18° North 148 170 3,000  Level Jacksonville Center
Thu 07:12:43 PM 30.4428 -81.7072 52° Northeast 140 161 3,000  Level Jacksonville Center
Thu 07:13:44 PM 30.4506 -81.6708 76° East 138 159 3,000 -207 Level Jacksonville Center
Thu 07:14:39 PM 30.4275 -81.6375 129° Southeast 150 173 2,600 -569 Descending Jacksonville Center
Thu 07:15:40 PM 30.4061 -81.5992 123° Southeast 144 166 1,900 -689 Descending Jacksonville Center
Thu 07:16:41 PM 30.3850 -81.5706 131° Southeast 114 131 1,200 -689 Descending Jacksonville Center
Thu 07:17:42 PM 30.3639 -81.5444 133° Southeast 104 120 500 -248 Descending Jacksonville Center
Thu 07:18:42 PM 30.3447 -81.5231 136° Southeast 100 115 700 298 Climbing Jacksonville Center
Thu 07:19:43 PM 30.3278 -81.5017 133° Southeast 97 112 1,100 131 Climbing Jacksonville Center
Thu 07:21:45 PM 30.3278 -81.5017 128° Southeast 97 112 1,100  Level Jacksonville Center

Login

Don't have an account? Register now (free) for customized features, flight alerts, and more!